Time;durP1;ratioP1;P1;durP2;ratioP2;P2;SDS_P1;SDS_P2;PMS_P1;PMS_P2;Temp;Humidity;BMP_temperature;BMP_pressure;BME280_temperature;BME280_humidity;BME280_pressure;Samples;Min_cycle;Max_cycle;Signal;HPM_P1;HPM_P2
2022/10/30 00:01:45;;;;;;;28.13;25.63;;;16.90;76.60;;;;;;5066512;28;21022;-77
2022/10/30 00:04:12;;;;;;;28.07;25.90;;;17.00;76.50;;;;;;5050601;28;20892;-77
2022/10/30 00:06:39;;;;;;;26.73;24.93;;;17.00;76.40;;;;;;5059584;28;20491;-76
2022/10/30 00:09:06;;;;;;;27.00;25.10;;;17.00;76.50;;;;;;5065164;28;20576;-76
2022/10/30 00:11:33;;;;;;;27.67;25.53;;;17.00;76.50;;;;;;5052083;28;20475;-77
2022/10/30 00:14:00;;;;;;;28.30;26.13;;;17.00;76.50;;;;;;5053151;28;20451;-76
2022/10/30 00:16:26;;;;;;;27.60;25.60;;;17.00;76.50;;;;;;5049911;28;20489;-76
2022/10/30 00:18:55;;;;;;;29.00;26.50;;;17.00;76.30;;;;;;5066593;28;20455;-76
2022/10/30 00:21:22;;;;;;;29.00;26.90;;;17.00;76.30;;;;;;5052723;28;20460;-76
2022/10/30 00:23:50;;;;;;;29.37;27.30;;;17.00;76.30;;;;;;5057686;28;20481;-76
2022/10/30 00:26:18;;;;;;;29.33;26.93;;;17.00;76.30;;;;;;5056592;28;20493;-76
2022/10/30 00:28:48;;;;;;;28.40;26.40;;;17.00;76.20;;;;;;5056579;28;20464;-76
2022/10/30 00:31:15;;;;;;;30.30;27.93;;;17.00;76.00;;;;;;5048682;28;20835;-76
2022/10/30 00:33:42;;;;;;;30.27;27.50;;;17.10;75.90;;;;;;5064714;28;20835;-77
2022/10/30 00:36:10;;;;;;;30.83;28.60;;;17.10;75.70;;;;;;5050514;28;20826;-76
2022/10/30 00:38:37;;;;;;;28.73;26.90;;;17.10;75.70;;;;;;5056998;28;20467;-76
2022/10/30 00:41:04;;;;;;;29.30;26.50;;;17.10;75.50;;;;;;5055239;28;20465;-76
2022/10/30 00:43:35;;;;;;;27.87;26.00;;;17.10;75.30;;;;;;5048590;28;21273;-76
2022/10/30 00:46:07;;;;;;;29.30;27.07;;;17.20;75.10;;;;;;5050236;28;20487;-77
2022/10/30 00:48:35;;;;;;;31.37;28.63;;;17.20;75.10;;;;;;5064659;28;20840;-76
2022/10/30 00:51:04;;;;;;;30.30;28.20;;;17.20;75.00;;;;;;5053290;28;20457;-76
2022/10/30 00:53:33;;;;;;;29.80;27.80;;;17.20;74.90;;;;;;5071154;28;20492;-78
2022/10/30 00:56:05;;;;;;;30.33;28.33;;;17.20;74.80;;;;;;5054753;28;20483;-78
2022/10/30 00:58:42;;;;;;;29.17;27.17;;;17.30;74.80;;;;;;5063087;28;20454;-78
2022/10/30 01:01:14;;;;;;;29.80;27.60;;;17.20;75.00;;;;;;5063894;28;20458;-78
2022/10/30 01:03:41;;;;;;;29.80;27.50;;;17.20;75.20;;;;;;5066590;28;20449;-76
2022/10/30 01:06:11;;;;;;;29.63;27.40;;;17.20;75.50;;;;;;5057210;28;20489;-77
2022/10/30 01:08:40;;;;;;;31.70;29.00;;;17.10;76.20;;;;;;5059053;28;20919;-77
2022/10/30 01:11:09;;;;;;;30.10;27.50;;;17.00;77.10;;;;;;5048162;28;20967;-76
2022/10/30 01:13:38;;;;;;;33.80;31.00;;;16.90;78.80;;;;;;5061377;28;20478;-77
2022/10/30 01:16:26;;;;;;;33.80;30.90;;;17.00;80.10;;;;;;5056943;28;21123;-76
2022/10/30 01:19:00;;;;;;;33.50;30.70;;;17.00;83.70;;;;;;5056026;28;20461;-76
2022/10/30 01:21:41;;;;;;;31.67;28.73;;;16.90;85.30;;;;;;5067314;28;20476;-77
2022/10/30 01:24:31;;;;;;;32.97;29.60;;;16.90;85.80;;;;;;5065770;28;20461;-77
2022/10/30 01:27:10;;;;;;;30.37;27.93;;;16.60;87.30;;;;;;5056111;28;20454;-76
2022/10/30 01:29:50;;;;;;;30.07;27.77;;;16.40;88.10;;;;;;5054360;28;20450;-77
2022/10/30 01:32:37;;;;;;;31.90;28.90;;;16.40;88.20;;;;;;5055984;28;20484;-76
2022/10/30 01:35:10;;;;;;;30.23;27.60;;;16.30;88.20;;;;;;5047739;28;20474;-76
2022/10/30 01:37:43;;;;;;;31.10;28.60;;;16.30;88.50;;;;;;5047785;28;20473;-76
2022/10/30 01:40:14;;;;;;;30.67;28.07;;;16.30;88.60;;;;;;5056899;28;20458;-76
2022/10/30 01:42:47;;;;;;;30.43;28.03;;;16.20;89.10;;;;;;5054220;28;20458;-76
2022/10/30 01:45:21;;;;;;;29.80;27.13;;;16.20;89.10;;;;;;5054297;28;20525;-76
2022/10/30 01:48:01;;;;;;;31.37;28.40;;;16.10;89.30;;;;;;5069083;28;20453;-76
2022/10/30 01:50:38;;;;;;;30.30;27.60;;;16.10;89.60;;;;;;5052254;28;20454;-76
2022/10/30 01:53:12;;;;;;;30.27;27.70;;;16.10;89.50;;;;;;5069378;28;21000;-76
2022/10/30 01:55:49;;;;;;;31.60;28.80;;;16.10;89.60;;;;;;5071105;28;20482;-76
2022/10/30 01:58:21;;;;;;;29.03;26.77;;;16.10;89.60;;;;;;5050174;28;20458;-76
2022/10/30 02:00:53;;;;;;;28.70;26.40;;;16.00;89.40;;;;;;5070708;28;20458;-76
2022/10/30 02:03:21;;;;;;;28.63;26.27;;;16.00;89.10;;;;;;5058804;28;20847;-76
2022/10/30 02:05:50;;;;;;;27.90;25.40;;;16.10;88.90;;;;;;5060246;28;20480;-76
2022/10/30 02:08:17;;;;;;;25.87;23.47;;;16.00;88.40;;;;;;5055276;28;20457;-77
2022/10/30 02:10:48;;;;;;;25.13;22.80;;;16.00;87.30;;;;;;5051535;28;20900;-76
2022/10/30 02:13:15;;;;;;;25.27;22.83;;;16.00;86.50;;;;;;5071333;28;20584;-76
2022/10/30 02:15:43;;;;;;;28.00;25.40;;;15.80;85.80;;;;;;5059273;28;20563;-76
2022/10/30 02:18:10;;;;;;;27.23;25.13;;;15.80;86.20;;;;;;5071515;28;20453;-76
2022/10/30 02:20:39;;;;;;;24.83;23.00;;;15.80;86.00;;;;;;5071904;28;20536;-76
2022/10/30 02:23:07;;;;;;;25.13;23.37;;;15.80;85.10;;;;;;5066059;28;20458;-77
2022/10/30 02:25:34;;;;;;;25.73;23.67;;;15.70;84.40;;;;;;5056687;28;20849;-76
2022/10/30 02:28:01;;;;;;;26.77;24.67;;;15.60;84.30;;;;;;5064023;28;20456;-77
2022/10/30 02:30:28;;;;;;;25.60;23.40;;;15.60;84.60;;;;;;5059514;28;20466;-76
2022/10/30 02:32:55;;;;;;;25.13;23.40;;;15.50;85.00;;;;;;5061304;28;20485;-76
2022/10/30 02:35:22;;;;;;;25.53;23.27;;;15.40;85.60;;;;;;5047638;28;20557;-77
2022/10/30 02:37:50;;;;;;;26.17;24.07;;;15.40;85.80;;;;;;5067936;28;20454;-76
2022/10/30 02:40:17;;;;;;;28.30;25.60;;;15.40;86.00;;;;;;5063654;28;20457;-76
2022/10/30 02:42:44;;;;;;;26.80;24.40;;;15.40;86.00;;;;;;5057082;28;20450;-76
2022/10/30 02:45:11;;;;;;;25.83;23.93;;;15.50;85.90;;;;;;5051703;28;20486;-77
2022/10/30 02:47:38;;;;;;;24.80;22.93;;;15.40;85.20;;;;;;5061947;28;20487;-76
2022/10/30 02:50:06;;;;;;;25.43;23.63;;;15.40;85.30;;;;;;5080193;28;20472;-76
2022/10/30 02:52:33;;;;;;;25.70;23.90;;;15.30;85.80;;;;;;5062470;28;20568;-78
2022/10/30 02:55:01;;;;;;;25.23;23.30;;;15.20;86.30;;;;;;5062823;28;20490;-78
2022/10/30 02:57:28;;;;;;;24.77;23.10;;;15.10;86.70;;;;;;5053388;28;20450;-78
2022/10/30 02:59:55;;;;;;;27.47;25.13;;;15.10;86.90;;;;;;5066470;28;20536;-78
2022/10/30 03:02:22;;;;;;;25.70;23.90;;;15.10;86.80;;;;;;5064900;28;20455;-78
2022/10/30 03:04:49;;;;;;;25.87;24.10;;;15.10;86.90;;;;;;5075350;28;20497;-78
2022/10/30 03:07:16;;;;;;;25.77;23.40;;;15.10;87.10;;;;;;5062644;28;20566;-78
2022/10/30 03:09:42;;;;;;;26.90;24.83;;;15.10;87.10;;;;;;5063657;28;20459;-78
2022/10/30 03:12:11;;;;;;;25.33;23.23;;;15.10;86.80;;;;;;5049729;28;20463;-78
2022/10/30 03:14:37;;;;;;;24.60;22.67;;;15.10;86.80;;;;;;5060115;28;20480;-78
2022/10/30 03:17:05;;;;;;;25.17;23.10;;;15.10;86.50;;;;;;5053220;28;20462;-79
2022/10/30 03:19:31;;;;;;;25.83;23.50;;;15.10;86.20;;;;;;5082581;28;20478;-78
2022/10/30 03:21:58;;;;;;;26.67;24.57;;;15.10;86.00;;;;;;5070254;28;20476;-78
2022/10/30 03:24:25;;;;;;;25.40;23.23;;;15.10;86.10;;;;;;5069024;28;20489;-79
2022/10/30 03:26:52;;;;;;;25.77;23.77;;;15.00;86.40;;;;;;5061079;28;20501;-76
2022/10/30 03:29:20;;;;;;;25.23;23.47;;;15.00;86.90;;;;;;5069131;28;20457;-76
2022/10/30 03:31:47;;;;;;;26.93;24.73;;;15.00;86.90;;;;;;5073886;28;20787;-76
2022/10/30 03:34:14;;;;;;;26.50;24.50;;;15.00;86.90;;;;;;5069635;28;20835;-77
2022/10/30 03:36:41;;;;;;;27.77;25.33;;;15.00;86.90;;;;;;5064165;28;20771;-78
2022/10/30 03:39:08;;;;;;;26.13;24.23;;;15.00;86.90;;;;;;5057211;28;20457;-76
2022/10/30 03:41:35;;;;;;;25.70;23.90;;;14.90;86.80;;;;;;5068659;28;20465;-76
2022/10/30 03:44:02;;;;;;;25.33;23.70;;;14.90;86.90;;;;;;5057605;28;20470;-76
2022/10/30 03:46:30;;;;;;;24.93;22.80;;;14.90;87.10;;;;;;5068883;28;20487;-76
2022/10/30 03:48:57;;;;;;;25.23;22.90;;;14.90;87.10;;;;;;5061065;28;20470;-77
2022/10/30 03:51:24;;;;;;;24.70;22.97;;;14.90;87.00;;;;;;5066087;28;20549;-78
2022/10/30 03:53:50;;;;;;;26.97;24.77;;;14.90;87.10;;;;;;5068314;28;20473;-76
2022/10/30 03:56:18;;;;;;;25.37;23.47;;;14.90;86.90;;;;;;5060853;28;20475;-78
2022/10/30 03:58:45;;;;;;;26.33;24.40;;;14.90;86.90;;;;;;5062321;28;20470;-77
2022/10/30 04:01:12;;;;;;;28.80;23.37;;;14.80;87.20;;;;;;5062123;28;20459;-77
2022/10/30 04:03:40;;;;;;;24.70;22.70;;;14.80;87.40;;;;;;5056198;28;20451;-78
2022/10/30 04:06:07;;;;;;;25.20;23.20;;;14.80;87.60;;;;;;5056703;28;20482;-80
2022/10/30 04:08:35;;;;;;;32.53;30.10;;;14.70;87.80;;;;;;5071868;28;20507;-78
2022/10/30 04:11:02;;;;;;;25.43;23.63;;;14.70;87.70;;;;;;5056884;28;20449;-78
2022/10/30 04:13:29;;;;;;;24.93;23.10;;;14.70;87.70;;;;;;5065182;28;21044;-78
2022/10/30 04:15:56;;;;;;;25.67;23.43;;;14.70;87.70;;;;;;5066003;28;20487;-78
2022/10/30 04:18:23;;;;;;;23.67;21.77;;;14.70;87.80;;;;;;5071263;28;20471;-78
2022/10/30 04:20:51;;;;;;;24.73;22.77;;;14.60;88.00;;;;;;5063762;28;20951;-78
2022/10/30 04:23:20;;;;;;;24.17;22.50;;;14.60;88.00;;;;;;5057189;28;21074;-78
2022/10/30 04:25:48;;;;;;;25.50;23.70;;;14.60;88.00;;;;;;5057714;28;20481;-78
2022/10/30 04:28:15;;;;;;;24.17;22.50;;;14.60;88.10;;;;;;5052657;28;20455;-78
2022/10/30 04:30:42;;;;;;;25.07;23.23;;;14.50;88.40;;;;;;5048775;28;20465;-78
2022/10/30 04:33:11;;;;;;;24.10;22.30;;;14.50;88.70;;;;;;5056816;28;20758;-78
2022/10/30 04:35:39;;;;;;;24.13;22.00;;;14.50;88.80;;;;;;5058484;28;20496;-78
2022/10/30 04:38:09;;;;;;;23.63;21.63;;;14.40;88.80;;;;;;5067061;28;20914;-78
2022/10/30 04:40:37;;;;;;;24.30;22.20;;;14.40;88.90;;;;;;5073655;28;20877;-77
2022/10/30 04:43:04;;;;;;;23.87;22.10;;;14.40;88.80;;;;;;5062552;28;20459;-78
2022/10/30 04:45:31;;;;;;;24.83;22.80;;;14.40;88.80;;;;;;5058133;28;20577;-78
2022/10/30 04:48:02;;;;;;;23.87;22.13;;;14.40;88.80;;;;;;5062192;28;20458;-78
2022/10/30 04:50:30;;;;;;;24.40;22.70;;;14.40;88.60;;;;;;5066007;28;20468;-78
2022/10/30 04:53:01;;;;;;;24.07;22.37;;;14.50;88.40;;;;;;5051139;28;20474;-78
2022/10/30 04:55:30;;;;;;;24.47;22.37;;;14.50;88.10;;;;;;5065323;28;20482;-78
2022/10/30 04:57:58;;;;;;;25.20;22.97;;;14.50;87.90;;;;;;5073661;28;20459;-78
2022/10/30 05:00:26;;;;;;;25.73;23.27;;;14.60;87.60;;;;;;5057010;28;20464;-78
2022/10/30 05:02:53;;;;;;;26.40;24.13;;;14.60;87.20;;;;;;5062050;28;20470;-78
2022/10/30 05:05:20;;;;;;;25.93;24.03;;;14.70;87.20;;;;;;5053185;28;20497;-79
2022/10/30 05:07:47;;;;;;;24.47;22.73;;;14.70;87.00;;;;;;5064935;28;20450;-78
2022/10/30 05:10:15;;;;;;;25.67;23.77;;;14.70;86.90;;;;;;5078129;28;20463;-78
2022/10/30 05:12:45;;;;;;;27.07;25.10;;;14.70;86.90;;;;;;5062554;28;20474;-78
2022/10/30 05:15:13;;;;;;;25.17;22.90;;;14.70;86.80;;;;;;5066674;28;20527;-78
2022/10/30 05:17:40;;;;;;;24.97;22.80;;;14.70;86.90;;;;;;5066771;28;20540;-78
2022/10/30 05:20:08;;;;;;;24.23;22.63;;;14.70;86.90;;;;;;5056627;28;20480;-78
2022/10/30 05:22:35;;;;;;;24.70;22.93;;;14.70;86.90;;;;;;5047767;28;20455;-78
2022/10/30 05:25:02;;;;;;;26.20;24.00;;;14.70;87.00;;;;;;5065598;28;20471;-80
2022/10/30 05:27:29;;;;;;;23.63;22.10;;;14.70;87.00;;;;;;5069243;28;20453;-79
2022/10/30 05:29:57;;;;;;;25.07;22.60;;;14.70;87.20;;;;;;5059006;28;20938;-78
2022/10/30 05:32:24;;;;;;;36.70;33.77;;;14.60;87.30;;;;;;5081265;28;20531;-78
2022/10/30 05:34:51;;;;;;;24.00;22.30;;;14.70;87.30;;;;;;5066393;28;20872;-79
2022/10/30 05:37:18;;;;;;;25.00;22.77;;;14.70;87.30;;;;;;5053131;28;20449;-79
2022/10/30 05:39:45;;;;;;;25.37;23.30;;;14.70;87.10;;;;;;5066872;28;20481;-76
2022/10/30 05:42:12;;;;;;;26.33;24.10;;;14.70;87.10;;;;;;5051066;28;20502;-76
2022/10/30 05:44:39;;;;;;;24.83;22.77;;;14.70;87.50;;;;;;5050699;28;20213;-76
2022/10/30 05:47:07;;;;;;;24.40;22.47;;;14.60;87.40;;;;;;5059356;28;20477;-76
2022/10/30 05:49:34;;;;;;;23.07;21.50;;;14.50;87.70;;;;;;5053530;28;20504;-76
2022/10/30 05:52:01;;;;;;;24.90;22.80;;;14.50;87.60;;;;;;5055056;28;20461;-76
2022/10/30 05:54:28;;;;;;;23.57;21.57;;;14.50;87.60;;;;;;5065448;28;20489;-76
2022/10/30 05:56:54;;;;;;;21.88;20.08;;;14.50;87.60;;;;;;5059664;28;20467;-76
2022/10/30 05:59:21;;;;;;;25.50;22.90;;;14.60;87.40;;;;;;5062353;28;20192;-77
2022/10/30 06:01:49;;;;;;;36.97;34.10;;;14.50;87.60;;;;;;5069212;28;20454;-75
2022/10/30 06:04:17;;;;;;;24.20;22.60;;;14.40;88.00;;;;;;5058295;28;20458;-75
2022/10/30 06:06:44;;;;;;;26.30;24.30;;;14.50;87.80;;;;;;5066708;28;20610;-76
2022/10/30 06:09:11;;;;;;;23.27;21.23;;;14.50;87.80;;;;;;5062508;28;20461;-76
2022/10/30 06:11:38;;;;;;;24.93;22.50;;;14.50;87.60;;;;;;5077318;28;20455;-76
2022/10/30 06:14:05;;;;;;;28.10;26.00;;;14.40;87.70;;;;;;5057599;28;20504;-75
2022/10/30 06:16:32;;;;;;;23.53;21.30;;;14.50;87.80;;;;;;5067172;28;20915;-76
2022/10/30 06:18:59;;;;;;;23.50;21.70;;;14.40;87.80;;;;;;5052401;28;20549;-76
2022/10/30 06:21:27;;;;;;;25.07;23.13;;;14.40;87.90;;;;;;5055702;28;20462;-76
2022/10/30 06:23:54;;;;;;;24.03;22.10;;;14.50;87.60;;;;;;5060817;28;20472;-76
2022/10/30 06:26:21;;;;;;;25.60;23.27;;;14.50;87.40;;;;;;5074252;28;20791;-82
2022/10/30 06:28:48;;;;;;;24.20;22.30;;;14.60;87.00;;;;;;5064299;28;20459;-78
2022/10/30 06:31:15;;;;;;;27.50;24.80;;;14.60;87.00;;;;;;5077198;28;21168;-78
2022/10/30 06:33:42;;;;;;;24.47;22.47;;;14.50;86.90;;;;;;5067863;28;20913;-78
2022/10/30 06:36:09;;;;;;;24.83;22.60;;;14.60;86.70;;;;;;5060534;28;20505;-80
2022/10/30 06:38:37;;;;;;;23.03;21.20;;;14.60;86.70;;;;;;5067616;28;20480;-79
2022/10/30 06:41:04;;;;;;;27.23;25.50;;;14.70;86.40;;;;;;5067857;28;20577;-78
2022/10/30 06:43:31;;;;;;;32.80;22.17;;;14.70;86.40;;;;;;5066032;28;20834;-77
2022/10/30 06:45:58;;;;;;;23.93;21.97;;;14.70;86.20;;;;;;5062550;28;20875;-78
2022/10/30 06:48:25;;;;;;;24.70;22.80;;;14.70;86.00;;;;;;5072276;28;20496;-77
2022/10/30 06:50:54;;;;;;;25.17;22.63;;;14.70;85.80;;;;;;5087721;28;21094;-77
2022/10/30 06:53:21;;;;;;;29.00;26.43;;;14.80;85.80;;;;;;5087693;28;20475;-77
2022/10/30 06:55:56;;;;;;;23.00;21.37;;;14.90;85.50;;;;;;5062030;28;20577;-77
2022/10/30 06:58:23;;;;;;;23.80;22.23;;;14.90;85.00;;;;;;5067764;28;20466;-80
2022/10/30 07:00:50;;;;;;;25.43;22.93;;;14.90;85.00;;;;;;5063786;28;20451;-80
2022/10/30 07:03:17;;;;;;;25.07;22.97;;;15.00;84.60;;;;;;5076112;28;21042;-78
2022/10/30 07:05:44;;;;;;;26.03;24.03;;;15.10;84.50;;;;;;5070878;28;20500;-80
2022/10/30 07:08:11;;;;;;;25.07;23.17;;;15.20;84.50;;;;;;5086050;28;20545;-82
2022/10/30 07:10:38;;;;;;;24.70;22.90;;;15.30;84.10;;;;;;5059374;28;20462;-82
2022/10/30 07:13:07;;;;;;;25.70;23.60;;;15.30;83.60;;;;;;5074614;28;20458;-81
2022/10/30 07:15:34;;;;;;;28.10;25.47;;;15.40;83.20;;;;;;5068857;28;20534;-82
2022/10/30 07:18:02;;;;;;;26.40;24.17;;;15.40;83.00;;;;;;5062998;28;20459;-81
2022/10/30 07:20:31;;;;;;;26.33;24.43;;;15.50;82.50;;;;;;5065796;28;20848;-81
2022/10/30 07:22:58;;;;;;;29.47;27.27;;;15.60;82.30;;;;;;5095177;28;20485;-81
2022/10/30 07:25:25;;;;;;;27.03;24.70;;;15.60;82.10;;;;;;5076198;28;20482;-81
2022/10/30 07:27:54;;;;;;;28.10;25.23;;;15.60;82.00;;;;;;5082088;28;20449;-80
2022/10/30 07:30:24;;;;;;;35.17;32.57;;;15.70;82.00;;;;;;5076826;28;20459;-80
2022/10/30 07:32:58;;;;;;;26.33;24.60;;;15.80;81.60;;;;;;5077392;28;20452;-80
2022/10/30 07:35:25;;;;;;;25.83;24.03;;;15.90;81.30;;;;;;5062924;28;20496;-81
2022/10/30 07:37:52;;;;;;;25.63;23.57;;;15.90;80.90;;;;;;5062094;28;20866;-80
2022/10/30 07:40:19;;;;;;;36.37;34.13;;;16.00;80.60;;;;;;5063206;28;20449;-80
2022/10/30 07:42:46;;;;;;;26.97;25.00;;;16.10;80.10;;;;;;5064277;28;20465;-80
2022/10/30 07:45:13;;;;;;;28.70;26.83;;;16.20;79.90;;;;;;5070879;28;20480;-81
2022/10/30 07:47:42;;;;;;;31.57;29.50;;;16.20;79.80;;;;;;5083293;28;20459;-79
2022/10/30 07:50:10;;;;;;;29.20;27.10;;;16.30;79.20;;;;;;5064767;28;20458;-78
2022/10/30 07:52:37;;;;;;;29.47;27.33;;;16.40;79.00;;;;;;5067037;28;20477;-78
2022/10/30 07:55:05;;;;;;;27.33;25.17;;;16.50;78.70;;;;;;5050433;28;20481;-79
2022/10/30 07:57:35;;;;;;;27.67;25.67;;;16.50;78.70;;;;;;5055988;28;20555;-78
2022/10/30 08:00:03;;;;;;;31.87;29.67;;;16.70;78.10;;;;;;5050075;28;20463;-79
2022/10/30 08:02:30;;;;;;;30.47;28.57;;;16.80;77.50;;;;;;5069364;28;20467;-80
2022/10/30 08:04:59;;;;;;;30.27;27.90;;;16.90;77.30;;;;;;5059291;28;21045;-80
2022/10/30 08:07:29;;;;;;;29.87;27.70;;;16.90;76.80;;;;;;5067672;28;20461;-77
2022/10/30 08:09:56;;;;;;;28.30;26.40;;;17.00;76.40;;;;;;5067090;28;20801;-78
2022/10/30 08:12:23;;;;;;;28.83;26.57;;;17.20;76.20;;;;;;5049716;28;20463;-79
2022/10/30 08:14:51;;;;;;;29.93;27.87;;;17.30;75.80;;;;;;5050877;28;20598;-80
2022/10/30 08:17:18;;;;;;;31.37;29.27;;;17.40;75.60;;;;;;5059223;28;20866;-78
2022/10/30 08:19:45;;;;;;;30.40;28.20;;;17.50;75.50;;;;;;5054241;28;20501;-76
2022/10/30 08:22:14;;;;;;;28.60;26.83;;;17.60;75.20;;;;;;5059104;28;20461;-76
2022/10/30 08:24:41;;;;;;;28.57;26.67;;;17.60;75.10;;;;;;5068352;28;20469;-76
2022/10/30 08:27:08;;;;;;;27.53;25.47;;;17.70;74.90;;;;;;5069516;28;20807;-76
2022/10/30 08:29:35;;;;;;;31.73;29.53;;;17.80;74.70;;;;;;5065631;28;20546;-76
2022/10/30 08:32:02;;;;;;;28.30;26.60;;;17.90;74.70;;;;;;5064300;28;20462;-76
2022/10/30 08:34:31;;;;;;;31.03;29.00;;;18.00;74.20;;;;;;5048041;28;20485;-76
2022/10/30 08:36:58;;;;;;;29.43;27.40;;;18.10;74.10;;;;;;5053451;28;20458;-76
2022/10/30 08:39:27;;;;;;;27.53;25.80;;;18.20;73.90;;;;;;5054718;28;20505;-76
2022/10/30 08:41:54;;;;;;;27.50;25.63;;;18.20;73.70;;;;;;5057470;28;20459;-77
2022/10/30 08:44:21;;;;;;;28.97;26.37;;;18.30;73.60;;;;;;5056742;28;20462;-77
2022/10/30 08:46:47;;;;;;;30.80;27.90;;;18.40;73.60;;;;;;5057332;28;20466;-78
2022/10/30 08:49:14;;;;;;;28.67;26.37;;;18.50;73.40;;;;;;5057945;28;20453;-77
2022/10/30 08:51:41;;;;;;;28.80;26.60;;;18.60;73.10;;;;;;5057195;28;20447;-78
2022/10/30 08:54:09;;;;;;;36.50;34.20;;;18.70;72.90;;;;;;5065322;28;20554;-78
2022/10/30 08:56:37;;;;;;;33.20;30.70;;;18.70;72.60;;;;;;5070480;28;20838;-78
2022/10/30 08:59:04;;;;;;;29.07;26.50;;;18.80;72.40;;;;;;5080567;28;20459;-78
2022/10/30 09:01:38;;;;;;;30.23;28.17;;;18.80;72.30;;;;;;5054344;28;20580;-78
2022/10/30 09:04:05;;;;;;;29.70;27.70;;;18.90;72.10;;;;;;5067853;28;20462;-78
2022/10/30 09:06:32;;;;;;;28.43;26.50;;;18.90;71.90;;;;;;5056617;28;20999;-77
2022/10/30 09:08:59;;;;;;;28.60;26.53;;;19.00;71.60;;;;;;5067106;28;20458;-77
2022/10/30 09:11:26;;;;;;;29.60;27.67;;;19.10;71.50;;;;;;5061848;28;20450;-77
2022/10/30 09:13:54;;;;;;;29.30;27.27;;;19.10;71.50;;;;;;5067347;28;20458;-77
2022/10/30 09:16:21;;;;;;;28.70;26.87;;;19.20;71.40;;;;;;5058119;28;20578;-78
2022/10/30 09:18:48;;;;;;;32.03;29.30;;;19.20;71.10;;;;;;5065710;28;20442;-78
2022/10/30 09:21:15;;;;;;;28.70;26.60;;;19.20;71.40;;;;;;5066745;28;20466;-78
2022/10/30 09:23:43;;;;;;;38.03;35.13;;;19.30;71.20;;;;;;5067628;28;20460;-78
2022/10/30 09:26:10;;;;;;;28.80;26.70;;;19.30;71.40;;;;;;5067205;28;20478;-78
2022/10/30 09:28:37;;;;;;;33.83;30.93;;;19.20;71.60;;;;;;5055712;28;20905;-78
2022/10/30 09:31:06;;;;;;;39.27;36.40;;;19.30;71.50;;;;;;5060124;28;20733;-78
2022/10/30 09:33:33;;;;;;;32.13;29.73;;;19.40;71.30;;;;;;5053855;28;20462;-78
2022/10/30 09:36:01;;;;;;;31.83;29.50;;;19.50;71.20;;;;;;5053214;28;20952;-78
2022/10/30 09:38:29;;;;;;;48.13;45.23;;;19.50;71.20;;;;;;5053843;28;20471;-78
2022/10/30 09:41:15;;;;;;;32.13;29.80;;;19.50;71.40;;;;;;5069001;28;20461;-79
2022/10/30 09:43:54;;;;;;;28.97;27.10;;;19.60;71.30;;;;;;5073589;28;20467;-79
2022/10/30 09:46:45;;;;;;;34.10;31.83;;;19.70;71.00;;;;;;5061438;28;20570;-79
2022/10/30 09:49:31;;;;;;;30.93;28.93;;;19.90;70.50;;;;;;5052684;28;20442;-79
2022/10/30 09:52:21;;;;;;;36.30;33.47;;;20.10;69.90;;;;;;5066186;28;20577;-79
2022/10/30 09:55:01;;;;;;;32.70;30.37;;;20.20;69.80;;;;;;5057982;28;20485;-79
2022/10/30 09:57:37;;;;;;;38.50;36.00;;;20.20;69.90;;;;;;5067932;28;20525;-78
2022/10/30 10:00:10;;;;;;;30.50;28.10;;;20.30;69.50;;;;;;5065175;28;20457;-77
2022/10/30 10:02:46;;;;;;;31.53;28.80;;;20.40;69.10;;;;;;5065262;28;20468;-79
2022/10/30 10:05:19;;;;;;;30.30;28.00;;;20.50;68.60;;;;;;5057684;28;20470;-78
2022/10/30 10:07:48;;;;;;;38.17;35.37;;;20.50;68.80;;;;;;5058633;28;20494;-79
2022/10/30 10:10:22;;;;;;;29.50;27.60;;;20.50;69.20;;;;;;5068372;28;20461;-78
2022/10/30 10:12:50;;;;;;;37.20;34.33;;;20.50;69.50;;;;;;5067599;28;21054;-78
2022/10/30 10:15:29;;;;;;;38.97;36.17;;;20.70;68.70;;;;;;5053449;28;20481;-79
2022/10/30 10:18:01;;;;;;;32.43;30.20;;;20.70;68.70;;;;;;5061758;28;20458;-79
2022/10/30 10:20:32;;;;;;;39.93;37.43;;;20.80;68.60;;;;;;5064707;28;20472;-78
2022/10/30 10:23:04;;;;;;;34.63;32.10;;;20.90;68.60;;;;;;5068824;28;20449;-78
2022/10/30 10:25:31;;;;;;;38.50;35.80;;;21.00;68.40;;;;;;5062903;28;20481;-78
2022/10/30 10:28:07;;;;;;;33.07;30.40;;;21.00;68.30;;;;;;5073602;28;20890;-78
2022/10/30 10:30:44;;;;;;;36.10;33.03;;;21.00;68.30;;;;;;5074099;28;20451;-78
2022/10/30 10:33:33;;;;;;;41.90;38.80;;;21.10;68.20;;;;;;5066828;28;20460;-78
2022/10/30 10:36:09;;;;;;;36.07;33.50;;;21.10;68.30;;;;;;5082086;28;20485;-78
2022/10/30 10:38:56;;;;;;;30.93;28.93;;;21.20;68.20;;;;;;5058973;28;20450;-78
2022/10/30 10:41:33;;;;;;;31.10;29.10;;;21.30;68.00;;;;;;5071417;28;20785;-79
2022/10/30 10:44:14;;;;;;;36.53;33.97;;;21.40;67.70;;;;;;5051436;28;20451;-78
2022/10/30 10:46:57;;;;;;;36.03;33.50;;;21.50;67.20;;;;;;5066076;28;20506;-78
2022/10/30 10:49:42;;;;;;;43.10;40.20;;;21.60;67.00;;;;;;5066674;28;20453;-78
2022/10/30 10:52:14;;;;;;;33.10;30.40;;;21.80;66.80;;;;;;5061232;28;20458;-78
2022/10/30 10:54:44;;;;;;;37.97;35.30;;;21.80;66.40;;;;;;5065809;28;21054;-78
2022/10/30 10:57:18;;;;;;;34.60;32.40;;;21.90;66.10;;;;;;5065328;28;20458;-79
2022/10/30 10:59:51;;;;;;;31.63;29.00;;;22.00;66.00;;;;;;5060483;28;20541;-79
2022/10/30 11:02:31;;;;;;;36.83;34.23;;;22.20;65.50;;;;;;5055405;28;20459;-79
2022/10/30 11:05:05;;;;;;;32.17;29.90;;;22.20;65.80;;;;;;5064577;28;20473;-78
2022/10/30 11:07:36;;;;;;;31.77;29.60;;;22.10;66.00;;;;;;5065598;28;21072;-78
2022/10/30 11:10:11;;;;;;;33.90;31.50;;;22.30;65.80;;;;;;5061009;28;20462;-78
2022/10/30 11:12:38;;;;;;;33.90;31.30;;;22.40;65.70;;;;;;5073203;28;20532;-79
2022/10/30 11:15:18;;;;;;;40.97;37.70;;;22.30;65.90;;;;;;5070547;28;20492;-79
2022/10/30 11:17:52;;;;;;;32.70;30.43;;;22.30;66.10;;;;;;5067356;28;21103;-77
2022/10/30 11:20:28;;;;;;;32.77;30.70;;;22.40;66.30;;;;;;5069722;28;20975;-77
2022/10/30 11:22:54;;;;;;;33.70;30.90;;;22.50;65.90;;;;;;5076006;28;20553;-77
2022/10/30 11:25:24;;;;;;;36.33;33.90;;;22.60;65.80;;;;;;5073516;28;20482;-76
2022/10/30 11:27:55;;;;;;;34.30;31.50;;;22.70;65.60;;;;;;5078272;28;20551;-77
2022/10/30 11:30:27;;;;;;;39.60;35.70;;;22.80;65.50;;;;;;5058668;28;20463;-77
2022/10/30 11:32:54;;;;;;;35.97;32.50;;;22.90;65.20;;;;;;5074871;28;20514;-76
2022/10/30 11:35:23;;;;;;;39.70;36.73;;;23.10;65.00;;;;;;5063601;28;20852;-77
2022/10/30 11:37:52;;;;;;;34.37;31.87;;;23.20;64.60;;;;;;5060396;28;20455;-76
2022/10/30 11:40:21;;;;;;;32.60;29.70;;;23.30;64.50;;;;;;5065500;28;20560;-78
2022/10/30 11:42:50;;;;;;;34.63;32.13;;;23.40;64.30;;;;;;5065386;28;20462;-78
2022/10/30 11:45:19;;;;;;;38.70;35.90;;;23.50;64.10;;;;;;5066763;28;20474;-78
2022/10/30 11:47:47;;;;;;;32.90;30.50;;;23.60;64.00;;;;;;5063721;28;20493;-78
2022/10/30 11:50:20;;;;;;;40.70;37.93;;;23.60;64.00;;;;;;5065121;28;20462;-78
2022/10/30 11:52:50;;;;;;;30.90;28.90;;;23.70;63.70;;;;;;5062401;28;20451;-78
2022/10/30 11:55:20;;;;;;;32.50;29.90;;;23.70;63.40;;;;;;5078848;28;21025;-78
2022/10/30 11:57:50;;;;;;;31.57;29.20;;;23.70;63.40;;;;;;5060283;28;20482;-77
2022/10/30 12:00:19;;;;;;;38.93;35.93;;;23.70;63.30;;;;;;5062125;28;22575;-78
2022/10/30 12:02:48;;;;;;;43.87;40.80;;;23.80;63.00;;;;;;5061519;28;20473;-78
2022/10/30 12:05:32;;;;;;;39.77;36.97;;;23.80;63.00;;;;;;5059849;28;20469;-78
2022/10/30 12:08:34;;;;;;;35.73;32.80;;;23.80;63.40;;;;;;5063009;28;20449;-79
2022/10/30 12:11:05;;;;;;;43.83;41.10;;;23.80;63.70;;;;;;5068575;28;20457;-77
2022/10/30 12:13:40;;;;;;;34.60;32.10;;;23.90;63.20;;;;;;5059587;28;20470;-79
2022/10/30 12:16:15;;;;;;;44.67;41.83;;;23.90;63.10;;;;;;5051666;28;20481;-78
2022/10/30 12:18:53;;;;;;;35.73;32.97;;;24.00;63.10;;;;;;5055528;28;20539;-78
2022/10/30 12:21:20;;;;;;;35.80;33.30;;;24.00;63.10;;;;;;5053726;28;20951;-78
2022/10/30 12:23:54;;;;;;;45.40;41.97;;;24.10;63.00;;;;;;5067172;28;20468;-79
2022/10/30 12:26:24;;;;;;;35.73;33.10;;;24.20;63.00;;;;;;5057144;28;20484;-78
2022/10/30 12:28:57;;;;;;;33.90;31.77;;;24.20;62.70;;;;;;5062244;28;20453;-78
2022/10/30 12:31:30;;;;;;;35.63;33.20;;;24.30;62.60;;;;;;5063483;28;20461;-78
